Time;durP1;ratioP1;P1;durP2;ratioP2;P2;SDS_P1;SDS_P2;PMS_P1;PMS_P2;Temp;Humidity;BMP_temperature;BMP_pressure;BME280_temperature;BME280_humidity;BME280_pressure;Samples;Min_cycle;Max_cycle;Signal;HPM_P1;HPM_P2
2022/04/25 00:05:01;;;;;;;27.23;13.05;;;8.50;99.90;;;;;;15564838;22;20027;-85
2022/04/25 00:11:04;;;;;;;29.35;14.13;;;8.50;99.90;;;;;;15603033;22;20032;-85
2022/04/25 00:17:06;;;;;;;25.75;12.65;;;8.50;99.90;;;;;;15558170;22;20089;-85
2022/04/25 00:23:08;;;;;;;22.55;13.07;;;8.60;99.90;;;;;;15558527;22;20481;-85
2022/04/25 00:29:11;;;;;;;20.58;12.60;;;8.50;99.90;;;;;;15562863;22;20842;-85
2022/04/25 00:35:13;;;;;;;20.40;12.45;;;8.50;99.90;;;;;;15548764;22;20124;-84
2022/04/25 00:41:15;;;;;;;26.45;13.27;;;8.50;99.90;;;;;;15561139;22;20093;-84
2022/04/25 00:47:18;;;;;;;22.02;12.88;;;8.40;99.90;;;;;;15563947;22;20019;-85
2022/04/25 00:53:20;;;;;;;24.05;12.65;;;8.40;99.90;;;;;;15563012;22;20711;-85
2022/04/25 00:59:24;;;;;;;43.95;12.20;;;8.40;99.90;;;;;;15560825;22;20020;-84
2022/04/25 01:05:25;;;;;;;20.52;12.55;;;8.40;99.90;;;;;;15556553;22;20019;-84
2022/04/25 01:11:27;;;;;;;31.83;12.15;;;8.50;99.90;;;;;;15563307;22;20031;-85
2022/04/25 01:17:29;;;;;;;25.10;13.23;;;8.50;99.90;;;;;;15565186;22;20027;-84
2022/04/25 01:29:53;;;;;;;21.20;12.45;;;8.40;99.90;;;;;;15553782;22;20105;-84
2022/04/25 01:35:55;;;;;;;22.50;13.50;;;8.40;99.90;;;;;;15552164;22;20024;-84
2022/04/25 01:41:57;;;;;;;23.88;14.45;;;8.50;99.90;;;;;;15564869;22;20081;-84
2022/04/25 01:47:59;;;;;;;22.33;13.82;;;8.40;99.90;;;;;;15569133;22;20047;-84
2022/04/25 01:54:01;;;;;;;29.77;13.48;;;8.30;99.90;;;;;;15568686;22;20403;-84
2022/04/25 02:00:04;;;;;;;24.77;13.35;;;8.30;99.90;;;;;;15559089;22;20027;-83
2022/04/25 02:06:06;;;;;;;19.25;12.90;;;8.20;99.90;;;;;;15555660;22;20058;-84
2022/04/25 02:12:08;;;;;;;26.08;13.63;;;8.20;99.90;;;;;;15551194;22;20053;-85
2022/04/25 02:18:10;;;;;;;24.25;12.15;;;8.10;99.90;;;;;;15542568;22;20023;-84
2022/04/25 02:24:12;;;;;;;20.80;11.55;;;8.10;99.90;;;;;;15554404;22;20109;-84
2022/04/25 02:30:14;;;;;;;24.23;12.10;;;8.20;99.90;;;;;;15555157;22;20030;-84
2022/04/25 02:36:16;;;;;;;32.53;11.32;;;8.30;99.90;;;;;;15559428;22;20085;-84
2022/04/25 02:42:18;;;;;;;23.42;12.02;;;8.20;99.90;;;;;;15556297;22;20027;-84
2022/04/25 02:48:19;;;;;;;22.65;11.48;;;8.30;99.90;;;;;;15554402;22;20479;-84
2022/04/25 02:54:21;;;;;;;21.60;11.70;;;8.10;99.90;;;;;;15559229;22;20028;-84
2022/04/25 03:00:23;;;;;;;17.35;9.57;;;8.20;99.90;;;;;;15558355;22;20082;-84
2022/04/25 03:06:25;;;;;;;14.73;8.32;;;8.10;99.90;;;;;;15556281;22;20066;-84
2022/04/25 03:12:27;;;;;;;17.30;9.73;;;8.00;99.90;;;;;;15557237;22;20165;-84
2022/04/25 03:18:29;;;;;;;16.92;7.95;;;7.90;99.90;;;;;;15555493;22;20130;-83
2022/04/25 03:24:31;;;;;;;19.52;9.10;;;7.80;99.90;;;;;;15552906;22;20162;-84
2022/04/25 03:30:34;;;;;;;17.25;8.48;;;7.70;99.90;;;;;;15554510;22;20031;-84
2022/04/25 03:36:36;;;;;;;17.42;8.70;;;7.70;99.90;;;;;;15558676;22;20049;-84
2022/04/25 03:42:39;;;;;;;17.15;8.43;;;7.70;99.90;;;;;;15557112;22;20133;-83
2022/04/25 03:48:41;;;;;;;14.52;7.70;;;7.60;99.90;;;;;;15552613;22;20110;-83
2022/04/25 04:01:03;;;;;;;24.55;7.93;;;7.40;99.90;;;;;;15555389;22;20031;-84
2022/04/25 04:07:06;;;;;;;12.85;7.10;;;7.30;99.90;;;;;;15554858;22;20051;-83
2022/04/25 04:13:08;;;;;;;13.73;7.55;;;7.30;99.90;;;;;;15556415;22;20058;-83
2022/04/25 04:19:10;;;;;;;14.20;7.88;;;7.30;99.90;;;;;;15536514;22;20117;-84
2022/04/25 04:25:14;;;;;;;15.40;7.63;;;7.30;99.90;;;;;;15557803;22;20628;-83
2022/04/25 04:31:16;;;;;;;14.52;7.85;;;7.30;99.90;;;;;;15560409;22;20027;-84
2022/04/25 04:37:18;;;;;;;17.50;8.27;;;7.40;99.90;;;;;;15561057;22;20451;-83
2022/04/25 04:43:20;;;;;;;16.40;8.02;;;7.30;99.90;;;;;;15563853;22;20537;-83
2022/04/25 04:49:22;;;;;;;19.05;8.65;;;7.30;99.90;;;;;;15559882;22;20105;-83
2022/04/25 04:55:24;;;;;;;19.90;8.25;;;7.30;99.90;;;;;;15554384;22;20100;-84
2022/04/25 05:01:26;;;;;;;21.20;8.90;;;7.30;99.90;;;;;;15555974;22;20046;-84
2022/04/25 05:07:29;;;;;;;15.85;8.70;;;7.30;99.90;;;;;;15559166;22;20086;-83
2022/04/25 05:13:31;;;;;;;18.10;8.20;;;7.30;99.90;;;;;;15556665;22;20031;-84
2022/04/25 05:19:33;;;;;;;18.60;8.80;;;7.30;99.90;;;;;;15531017;22;20490;-84
2022/04/25 05:25:38;;;;;;;15.20;9.15;;;7.30;99.90;;;;;;15562159;22;20023;-84
2022/04/25 05:31:40;;;;;;;21.50;9.05;;;7.20;99.90;;;;;;15530253;22;20074;-84
2022/04/25 05:37:43;;;;;;;16.98;9.40;;;7.50;99.90;;;;;;15560659;22;20105;-84
2022/04/25 05:43:45;;;;;;;20.88;9.90;;;7.40;99.90;;;;;;15565598;22;20030;-83
2022/04/25 06:14:34;;;;;;;19.98;12.05;;;7.50;99.90;;;;;;12566928;27;20374;-38
2022/04/25 06:20:37;;;;;;;20.60;12.68;;;7.30;99.90;;;;;;12481172;28;20612;-38
2022/04/25 06:26:39;;;;;;;19.83;12.75;;;7.40;99.90;;;;;;12486726;28;20496;-38
2022/04/25 06:32:41;;;;;;;24.27;12.82;;;7.50;99.90;;;;;;12484575;28;20172;-39
2022/04/25 06:38:43;;;;;;;23.98;13.05;;;7.60;99.90;;;;;;12483436;28;20482;-38
2022/04/25 06:44:46;;;;;;;22.55;13.15;;;7.60;99.90;;;;;;12482654;28;20046;-38
2022/04/25 06:50:48;;;;;;;20.67;12.95;;;7.60;99.90;;;;;;12486315;28;20490;-37
2022/04/25 06:56:52;;;;;;;27.35;12.90;;;7.60;99.90;;;;;;12491612;28;20060;-37
2022/04/25 07:02:55;;;;;;;18.40;12.03;;;7.60;99.90;;;;;;12492485;28;20073;-37
2022/04/25 07:08:57;;;;;;;22.90;13.50;;;7.70;99.90;;;;;;12487334;28;20068;-37
2022/04/25 07:15:00;;;;;;;22.08;12.15;;;7.70;99.90;;;;;;12462909;28;20064;-38
2022/04/25 07:28:48;;;;;;;21.00;13.02;;;7.80;99.90;;;;;;12450210;28;20519;-38
2022/04/25 07:33:56;;;;;;;20.63;13.00;;;8.00;99.90;;;;;;12448244;28;20138;-38
2022/04/25 07:40:00;;;;;;;22.00;13.52;;;8.10;99.90;;;;;;12451130;28;20631;-38
2022/04/25 07:46:02;;;;;;;21.63;13.40;;;8.20;99.90;;;;;;12455247;28;20046;-38
2022/04/25 07:52:05;;;;;;;20.35;13.45;;;8.20;99.90;;;;;;12451128;28;20053;-39
2022/04/25 07:58:09;;;;;;;29.00;15.40;;;8.20;99.90;;;;;;12445845;28;20053;-40
2022/04/25 08:04:12;;;;;;;22.30;13.95;;;8.30;99.90;;;;;;12444515;28;20053;-37
2022/04/25 08:10:14;;;;;;;23.73;15.63;;;8.30;99.90;;;;;;12447367;28;20050;-39
2022/04/25 08:22:37;;;;;;;25.95;15.50;;;8.40;99.90;;;;;;12449814;28;20048;-37
2022/04/25 08:28:41;;;;;;;27.50;16.15;;;8.50;99.90;;;;;;12439500;28;20054;-38
2022/04/25 08:35:03;;;;;;;25.53;16.17;;;8.70;99.90;;;;;;12455501;28;20077;-38
2022/04/25 08:41:06;;;;;;;21.75;14.55;;;8.70;99.90;;;;;;12446164;28;20049;-39
2022/04/25 08:47:14;;;;;;;20.20;14.30;;;8.80;99.90;;;;;;12446353;28;20084;-39
2022/04/25 08:53:17;;;;;;;17.27;11.95;;;8.80;99.90;;;;;;12447189;28;20053;-44
2022/04/25 08:59:21;;;;;;;20.08;14.55;;;8.80;99.90;;;;;;12446076;28;20407;-37
2022/04/25 09:05:23;;;;;;;20.55;15.13;;;8.80;99.90;;;;;;12440763;28;20184;-39
2022/04/25 09:17:46;;;;;;;17.25;13.32;;;8.70;99.90;;;;;;12445338;28;20063;-38
2022/04/25 09:23:48;;;;;;;15.93;12.77;;;8.50;99.90;;;;;;12447245;28;20556;-38
2022/04/25 09:29:51;;;;;;;19.25;12.85;;;8.50;99.90;;;;;;12452668;28;20095;-37
2022/04/25 09:35:55;;;;;;;21.70;12.75;;;8.50;99.90;;;;;;12445008;28;20045;-38
2022/04/25 09:42:00;;;;;;;16.70;11.43;;;8.70;99.90;;;;;;12443773;28;20069;-38
2022/04/25 09:48:09;;;;;;;20.02;12.85;;;8.80;99.90;;;;;;12448175;28;20143;-37
2022/04/25 09:54:24;;;;;;;17.15;11.43;;;8.80;99.90;;;;;;12443989;28;20049;-37
2022/04/25 10:00:33;;;;;;;13.70;10.80;;;8.70;99.90;;;;;;12443306;28;20049;-38
2022/04/25 10:06:36;;;;;;;13.13;10.48;;;8.70;99.90;;;;;;12445123;28;20477;-37
2022/04/25 10:12:39;;;;;;;15.77;10.38;;;8.80;99.90;;;;;;12449542;28;20140;-37
2022/04/25 10:18:42;;;;;;;16.55;11.50;;;8.90;99.90;;;;;;12441215;28;20057;-39
2022/04/25 10:24:45;;;;;;;12.43;10.37;;;8.70;99.90;;;;;;12442765;28;20517;-39
2022/04/25 10:30:49;;;;;;;12.85;10.55;;;8.80;99.90;;;;;;12442644;28;20053;-37
2022/04/25 10:36:51;;;;;;;12.57;10.30;;;8.90;99.90;;;;;;12438508;28;20060;-38
2022/04/25 10:49:52;;;;;;;11.30;9.15;;;9.00;99.90;;;;;;12449125;28;20057;-39
2022/04/25 10:56:08;;;;;;;17.45;9.88;;;9.00;99.90;;;;;;12458123;28;20050;-37
2022/04/25 11:02:23;;;;;;;13.80;9.93;;;9.10;99.90;;;;;;12450626;28;20133;-39
2022/04/25 11:08:31;;;;;;;15.30;10.18;;;9.00;99.90;;;;;;12457611;28;20132;-37
2022/04/25 11:14:37;;;;;;;13.15;10.45;;;8.90;99.90;;;;;;12463458;28;20184;-38
2022/04/25 11:21:07;;;;;;;19.52;10.68;;;8.90;99.90;;;;;;12466739;28;20079;-39
2022/04/25 11:27:14;;;;;;;18.98;11.60;;;8.90;99.90;;;;;;12468170;28;20056;-38
2022/04/25 11:33:19;;;;;;;15.27;11.20;;;8.90;99.90;;;;;;12470986;28;20490;-37
2022/04/25 11:45:56;;;;;;;16.10;13.40;;;8.80;99.90;;;;;;12458762;28;20533;-38
2022/04/25 11:52:06;;;;;;;17.80;13.18;;;8.70;99.90;;;;;;12457372;28;20053;-39
2022/04/25 11:58:31;;;;;;;19.42;13.50;;;8.80;99.90;;;;;;12487937;28;20528;-38
2022/04/25 12:04:42;;;;;;;20.15;13.82;;;8.80;99.90;;;;;;12448398;28;20053;-37
2022/04/25 12:17:38;;;;;;;;;;;8.90;99.90;;;;;;12470813;28;20053;-37
2022/04/25 12:23:54;;;;;;;22.80;16.33;;;9.10;99.90;;;;;;12458139;28;19925;-37
2022/04/25 12:30:06;;;;;;;21.70;16.85;;;9.30;99.90;;;;;;12461295;28;20048;-38
2022/04/25 12:36:18;;;;;;;20.42;16.23;;;9.50;99.90;;;;;;12505030;28;20049;-38
2022/04/25 12:42:20;;;;;;;20.65;15.30;;;9.60;99.90;;;;;;12499157;28;20053;-39
2022/04/25 12:48:22;;;;;;;16.60;13.80;;;9.70;99.90;;;;;;12495926;28;20569;-37
2022/04/25 12:54:27;;;;;;;18.58;14.50;;;9.80;99.90;;;;;;12494137;28;20044;-38
2022/04/25 13:00:47;;;;;;;18.90;14.88;;;9.90;99.90;;;;;;12500480;28;20053;-38
2022/04/25 13:07:09;;;;;;;20.23;14.82;;;10.00;99.90;;;;;;12494868;28;20362;-40
2022/04/25 13:13:11;;;;;;;16.70;12.85;;;9.90;99.90;;;;;;12493134;28;20652;-38
2022/04/25 13:19:17;;;;;;;15.55;13.40;;;9.90;99.90;;;;;;12495352;28;20048;-37
2022/04/25 13:25:22;;;;;;;18.13;14.43;;;10.20;99.90;;;;;;12498680;28;20045;-37
2022/04/25 13:31:25;;;;;;;18.52;14.25;;;10.30;99.90;;;;;;12499132;28;20428;-38
2022/04/25 13:37:30;;;;;;;17.50;14.45;;;10.40;99.90;;;;;;12496333;28;20081;-39
2022/04/25 13:43:33;;;;;;;14.73;12.43;;;10.50;99.90;;;;;;12499267;28;20563;-38
2022/04/25 13:49:37;;;;;;;16.33;11.80;;;10.90;99.90;;;;;;12496532;28;20068;-38
2022/04/25 13:55:39;;;;;;;12.60;11.07;;;10.90;99.90;;;;;;12491422;28;20579;-38
2022/04/25 14:01:41;;;;;;;13.55;11.30;;;11.20;99.90;;;;;;12490179;28;20048;-38
2022/04/25 14:07:44;;;;;;;13.25;11.43;;;11.20;99.90;;;;;;12492453;28;20124;-37
2022/04/25 14:13:47;;;;;;;12.70;11.30;;;11.40;99.90;;;;;;12494475;28;20145;-38
2022/04/25 14:19:49;;;;;;;17.02;12.77;;;11.00;99.90;;;;;;12497490;28;20625;-38
2022/04/25 14:25:55;;;;;;;14.75;11.93;;;10.90;99.90;;;;;;12514896;28;20046;-39
2022/04/25 14:31:57;;;;;;;14.05;12.35;;;11.00;99.90;;;;;;12506709;28;20076;-39
2022/04/25 14:37:59;;;;;;;15.43;12.65;;;11.10;99.90;;;;;;12508748;28;20040;-38
2022/04/25 14:44:02;;;;;;;13.43;11.65;;;11.10;99.90;;;;;;12508506;28;20084;-39
2022/04/25 14:56:26;;;;;;;19.00;13.68;;;10.70;99.90;;;;;;12502865;28;20463;-38
2022/04/25 15:02:29;;;;;;;17.77;15.13;;;10.60;99.90;;;;;;12510041;28;20056;-39
2022/04/25 15:08:32;;;;;;;19.48;15.50;;;10.60;99.90;;;;;;12506239;28;20061;-40
2022/04/25 15:14:34;;;;;;;16.77;14.05;;;10.60;99.90;;;;;;12507376;28;20068;-40
2022/04/25 15:20:39;;;;;;;20.65;15.02;;;10.70;99.90;;;;;;12509597;28;20581;-40
2022/04/25 15:26:41;;;;;;;18.83;15.07;;;10.80;99.90;;;;;;12506670;28;20206;-39
2022/04/25 15:32:43;;;;;;;19.27;14.65;;;10.80;99.90;;;;;;12504144;28;20144;-40
2022/04/25 15:38:46;;;;;;;18.10;13.73;;;10.80;99.90;;;;;;12505200;28;20128;-37
2022/04/25 15:44:48;;;;;;;17.63;12.68;;;10.70;99.90;;;;;;12501089;28;20084;-38
2022/04/25 15:50:51;;;;;;;18.95;12.93;;;10.80;99.90;;;;;;12500105;28;20509;-37
2022/04/25 16:03:16;;;;;;;14.52;11.82;;;10.40;99.90;;;;;;12498781;28;20049;-40
2022/04/25 16:09:21;;;;;;;17.58;12.48;;;10.40;99.90;;;;;;12496363;28;20040;-38
2022/04/25 16:15:23;;;;;;;17.33;13.80;;;10.30;99.90;;;;;;12497365;28;20053;-39
2022/04/25 16:21:27;;;;;;;15.27;12.75;;;10.30;99.90;;;;;;12502731;28;20581;-38
2022/04/25 16:27:32;;;;;;;14.80;12.80;;;10.30;99.90;;;;;;12502024;28;20405;-39
2022/04/25 16:33:34;;;;;;;15.57;13.65;;;10.30;99.90;;;;;;12497707;28;20049;-38
2022/04/25 16:39:37;;;;;;;16.23;13.20;;;10.30;99.90;;;;;;12499554;28;20060;-38
2022/04/25 16:45:39;;;;;;;15.50;12.57;;;10.30;99.90;;;;;;12498301;28;20045;-38
2022/04/25 16:51:41;;;;;;;16.02;12.90;;;10.30;99.90;;;;;;12489786;28;20045;-38
2022/04/25 16:57:44;;;;;;;15.90;12.82;;;10.30;99.90;;;;;;12493996;28;20117;-39
2022/04/25 17:03:46;;;;;;;17.70;11.90;;;10.30;99.90;;;;;;12494028;28;20570;-39
2022/04/25 17:09:48;;;;;;;20.35;14.20;;;10.30;99.90;;;;;;12493053;28;20086;-38
2022/04/25 17:15:52;;;;;;;15.80;12.23;;;10.20;99.90;;;;;;12494083;28;20084;-37
2022/04/25 17:21:58;;;;;;;16.05;13.20;;;10.10;99.90;;;;;;12499960;28;20075;-37
2022/04/25 17:28:01;;;;;;;18.67;14.85;;;10.20;99.90;;;;;;12480405;28;20056;-39
